8A0

Albertville Regional-Thomas J Brumlik Field Airport

Albertville, Alabama, USA
METAR K8A0 201755Z AUTO 10007KT 10SM CLR 16/03 A3033 RMK AO2
Observed Flight Rules
Apr-20 @ 17:55 UTC (33 minutes ago) Visual Flight Rules
Wind Visibility Clouds
100° at 7 knots 10 miles
  • Clear skies
Temperatures Readings
Current 16°C / 61°F
Dewpoint 3°C / 37°F
Humidity 42%
Altimeter 30.33" Hg
Pressure 1027 hPa
Elevation 315
METAR K8A0 201755Z AUTO 10007KT 10SM CLR 16/03 A3033 RMK AO2
Observed Flight Rules
Apr-20 @ 17:55 UTC
(33 minutes ago)
VFR
Wind Visibility
100° at 7 knots 10 miles
Clouds
  • Clear skies
Temperature Dewpoint
16°C / 61°F 3°C / 37°F
Humidity Altimeter Pressure
42% 30.33" Hg 1027 hPa